No.3tokuyomaru — JD3132 — position and weather

sailwx.info

Track history (hours):
 
Tides and Currents Weather Stations Pressure Air Temp Water Temp Dewpoint Dewpoint Depression Visibility Wind Speed Wind Dir Waves Ship Positions

No.3tokuyomaru

Last reported at 2016-May-02 22:11 UTC. Time now 2016-May-03 06:51 UTC.
Position N 35°54' E 140°41'.

Length 67 m; draft 4.5 m.

Type: Tanker. MMSI: 431002151.

Date/timePositionNaut miles runAvg speedWind from/ knotsBaromVisibWave heightAir tempDewpointWater temp
2016-May-02 22:11N 35°54' E 140°41'56 8.1
2016-May-02 15:15N 35°02' E 140°14'912.6
2016-May-02 14:33N 34°57' E 140°05'19 7.8
2016-May-02 12:09N 35°06' E 139°45'812.8
2016-May-02 11:33N 35°13' E 139°46'1211.8
2016-May-02 10:33N 35°25' E 139°43'7 6.8
2016-May-02 09:34N 35°31' E 139°46'0 0.0
2016-May-02 03:33N 35°31' E 139°46'3 2.9
2016-May-02 02:33N 35°29' E 139°49'0 0.0
2016-May-02 01:33N 35°29' E 139°49'0 0.0
2016-May-02 00:27N 35°29' E 139°49'0 0.0
2016-May-01 23:33N 35°29' E 139°49'0 0.0
2016-May-01 22:33N 35°29' E 139°49'0 0.0
2016-May-01 21:11N 35°29' E 139°49'0 0.0
2016-May-01 20:33N 35°29' E 139°49'0 0.0
2016-May-01 19:23N 35°29' E 139°49'0 0.0
2016-May-01 18:33N 35°29' E 139°49'0 0.0
2016-May-01 17:32N 35°29' E 139°49'0 0.0
2016-May-01 16:30N 35°29' E 139°49'6 6.7
2016-May-01 15:33N 35°23' E 139°46'1211.7
2016-May-01 14:33N 35°11' E 139°47'1511.6
2016-May-01 13:15N 34°56' E 139°45'18 9.5
2016-May-01 11:24N 34°58' E 140°06'3210.9
2016-May-01 08:24N 35°19' E 140°36'910.5
2016-May-01 07:33N 35°26' E 140°42'27 3.3
2016-Apr-30 23:17N 35°54' E 140°41'58 5.2
2016-Apr-30 12:14N 35°01' E 140°12'912.5
2016-Apr-30 11:30N 34°55' E 140°03'18 8.5
2016-Apr-30 09:26N 35°03' E 139°44'1012.0
2016-Apr-30 08:33N 35°14' E 139°46'1111.1
2016-Apr-30 07:33N 35°24' E 139°43'1211.5
2016-Apr-30 06:33N 35°31' E 139°55'6 6.2
2016-Apr-30 05:33N 35°31' E 140°03'0 0.0
2016-Apr-30 04:33N 35°31' E 140°03'0 0.0
2016-Apr-30 03:33N 35°31' E 140°03'0 0.0
2016-Apr-30 02:33N 35°31' E 140°03'0 0.0
2016-Apr-30 01:27N 35°31' E 140°03'1 1.4
2016-Apr-30 00:33N 35°31' E 140°01'5 4.3
2016-Apr-29 23:24N 35°29' E 139°56'0 0.0
2016-Apr-29 22:33N 35°29' E 139°56'0 0.0
2016-Apr-29 21:33N 35°29' E 139°56'0 0.0
2016-Apr-29 20:33N 35°29' E 139°56'0 0.0
2016-Apr-29 19:33N 35°29' E 139°56'0 0.0
2016-Apr-29 17:30N 35°29' E 139°56'0 0.0
2016-Apr-29 16:32N 35°29' E 139°56'0 0.0
2016-Apr-29 15:32N 35°29' E 139°56'0 0.0
2016-Apr-29 14:33N 35°29' E 139°56'0 0.0
2016-Apr-29 13:30N 35°29' E 139°56'0 0.0
2016-Apr-29 12:18N 35°29' E 139°56'0 0.7
2016-Apr-29 11:33N 35°29' E 139°55'1010.3
2016-Apr-29 10:33N 35°22' E 139°45'1010.1
2016-Apr-29 09:33N 35°12' E 139°47'60 5.9
2016-Apr-28 23:17N 35°54' E 140°41'0 0.0
2016-Apr-27 23:31N 35°54' E 140°41'39 5.5
2016-Apr-27 16:26N 35°15' E 140°32'2513.0
2016-Apr-27 14:33N 34°60' E 140°09'1212.1
2016-Apr-27 13:33N 34°52' E 139°57'1110.4
2016-Apr-27 12:31N 34°55' E 139°45'1411.9
2016-Apr-27 11:21N 35°09' E 139°46'1111.9
2016-Apr-27 10:28N 35°20' E 139°43'1011.5
2016-Apr-27 09:33N 35°29' E 139°48'2 1.9
2016-Apr-27 08:29N 35°31' E 139°46'0 0.0
2016-Apr-27 07:17N 35°31' E 139°46'0 0.0
2016-Apr-27 05:24N 35°31' E 139°46'6 7.4
2016-Apr-27 04:33N 35°31' E 139°54'7 6.1
2016-Apr-27 03:26N 35°31' E 140°02'0 0.0
2016-Apr-27 02:32N 35°31' E 140°02'0 0.0
2016-Apr-27 01:29N 35°31' E 140°02'0 0.0
2016-Apr-27 00:23N 35°31' E 140°02'3 3.5
2016-Apr-26 23:33N 35°32' E 139°60'6 5.9
2016-Apr-26 22:28N 35°37' E 139°55'0 0.0
2016-Apr-26 21:31N 35°37' E 139°55'0 0.1
2016-Apr-26 20:31N 35°37' E 139°55'0 0.0
2016-Apr-26 19:28N 35°37' E 139°55'0 0.0
2016-Apr-26 18:31N 35°37' E 139°55'0 0.0
2016-Apr-26 17:31N 35°37' E 139°55'0 0.0
2016-Apr-26 16:31N 35°37' E 139°55'0 0.0
2016-Apr-26 15:28N 35°37' E 139°55'0 0.1
2016-Apr-26 14:31N 35°37' E 139°55'0 0.0
2016-Apr-26 13:32N 35°37' E 139°55'0 0.0
2016-Apr-26 12:31N 35°37' E 139°55'0 0.1
2016-Apr-26 11:33N 35°37' E 139°55'0 0.0
2016-Apr-26 10:33N 35°37' E 139°55'0 0.0
2016-Apr-26 09:34N 35°37' E 139°55'0 0.0
2016-Apr-26 08:33N 35°37' E 139°55'0 0.0
2016-Apr-26 07:33N 35°37' E 139°55'0 0.0
2016-Apr-26 06:34N 35°37' E 139°55'1010.4
2016-Apr-26 05:34N 35°28' E 139°48'7 7.4
2016-Apr-26 04:33N 35°23' E 139°42'9 2.0
2016-Apr-26 00:17N 35°31' E 139°46'3 3.7
2016-Apr-25 23:31N 35°29' E 139°49'0 0.0
2016-Apr-25 22:28N 35°29' E 139°49'0 0.0
2016-Apr-25 21:31N 35°29' E 139°49'0 0.0
2016-Apr-25 20:31N 35°29' E 139°49'0 0.0
2016-Apr-25 19:31N 35°29' E 139°49'0 0.0
2016-Apr-25 18:31N 35°29' E 139°49'0 0.0
2016-Apr-25 17:31N 35°29' E 139°49'0 0.0
2016-Apr-25 16:31N 35°29' E 139°49'5 5.0
2016-Apr-25 15:33N 35°24' E 139°46'10 9.9
2016-Apr-25 14:33N 35°14' E 139°47'63 6.3
2016-Apr-25 04:30N 35°58' E 140°43'4 0.7
2016-Apr-24 23:28N 35°55' E 140°41'5 3.5
2016-Apr-24 22:07N 35°59' E 140°42'5 9.1
2016-Apr-24 21:31N 35°55' E 140°46'1312.0
2016-Apr-24 20:26N 35°44' E 140°54'1111.3
2016-Apr-24 19:27N 35°34' E 140°50'2311.8
2016-Apr-24 17:28N 35°15' E 140°32'2412.3
2016-Apr-24 15:32N 34°60' E 140°10'1211.8
2016-Apr-24 14:29N 34°53' E 139°57'1010.2
2016-Apr-24 13:29N 34°55' E 139°45'1312.0
2016-Apr-24 12:22N 35°08' E 139°45'1012.5
2016-Apr-24 11:33N 35°18' E 139°44'1211.7
2016-Apr-24 10:34N 35°29' E 139°48'2 2.3
2016-Apr-24 09:32N 35°30' E 139°45'0 0.0
2016-Apr-24 08:32N 35°30' E 139°45'0 0.0
2016-Apr-24 07:32N 35°30' E 139°45'0 0.0
2016-Apr-24 06:32N 35°30' E 139°45'0 0.0
2016-Apr-24 05:32N 35°30' E 139°45'2 1.7
2016-Apr-24 04:34N 35°30' E 139°47'2 2.3
2016-Apr-24 03:33N 35°29' E 139°49'0 0.0
2016-Apr-24 02:33N 35°29' E 139°49'0 0.0
2016-Apr-24 01:33N 35°29' E 139°49'0 0.0
2016-Apr-24 00:33N 35°29' E 139°49'0 0.0
2016-Apr-23 23:33N 35°29' E 139°49'6 6.0
2016-Apr-23 22:33N 35°23' E 139°46'1010.3
2016-Apr-23 21:33N 35°13' E 139°47'1513.0
2016-Apr-23 20:22N 34°57' E 139°45'1110.8
2016-Apr-23 19:20N 34°53' E 139°57'912.1
2016-Apr-23 18:33N 34°58' E 140°06'2610.5
2016-Apr-23 16:07N 35°14' E 140°31'41 4.2
2016-Apr-23 06:28N 35°54' E 140°41'54 9.0
2016-Apr-23 00:28N 35°03' E 140°17'1112.4
2016-Apr-22 23:33N 34°57' E 140°05'  
Track history (hours):
 
Tides and Currents Weather Stations Pressure Air Temp Water Temp Dewpoint Dewpoint Depression Visibility Wind Speed Wind Dir Waves Ship Positions

No.3tokuyomaru

Last reported at 2016-May-02 22:11 UTC. Time now 2016-May-03 06:51 UTC.
Position N 35°54' E 140°41'.

Length 67 m; draft 4.5 m.

Type: Tanker. MMSI: 431002151.

Date/timePositionNaut miles runAvg speedWind from/ knotsBaromVisibWave heightAir tempDewpointWater temp
2016-May-02 22:11N 35°54' E 140°41'56 8.1
2016-May-02 15:15N 35°02' E 140°14'912.6
2016-May-02 14:33N 34°57' E 140°05'19 7.8
2016-May-02 12:09N 35°06' E 139°45'812.8
2016-May-02 11:33N 35°13' E 139°46'1211.8
2016-May-02 10:33N 35°25' E 139°43'7 6.8
2016-May-02 09:34N 35°31' E 139°46'0 0.0
2016-May-02 03:33N 35°31' E 139°46'3 2.9
2016-May-02 02:33N 35°29' E 139°49'0 0.0
2016-May-02 01:33N 35°29' E 139°49'0 0.0
2016-May-02 00:27N 35°29' E 139°49'0 0.0
2016-May-01 23:33N 35°29' E 139°49'0 0.0
2016-May-01 22:33N 35°29' E 139°49'0 0.0
2016-May-01 21:11N 35°29' E 139°49'0 0.0
2016-May-01 20:33N 35°29' E 139°49'0 0.0
2016-May-01 19:23N 35°29' E 139°49'0 0.0
2016-May-01 18:33N 35°29' E 139°49'0 0.0
2016-May-01 17:32N 35°29' E 139°49'0 0.0
2016-May-01 16:30N 35°29' E 139°49'6 6.7
2016-May-01 15:33N 35°23' E 139°46'1211.7
2016-May-01 14:33N 35°11' E 139°47'1511.6
2016-May-01 13:15N 34°56' E 139°45'18 9.5
2016-May-01 11:24N 34°58' E 140°06'3210.9
2016-May-01 08:24N 35°19' E 140°36'910.5
2016-May-01 07:33N 35°26' E 140°42'27 3.3
2016-Apr-30 23:17N 35°54' E 140°41'58 5.2
2016-Apr-30 12:14N 35°01' E 140°12'912.5
2016-Apr-30 11:30N 34°55' E 140°03'18 8.5
2016-Apr-30 09:26N 35°03' E 139°44'1012.0
2016-Apr-30 08:33N 35°14' E 139°46'1111.1
2016-Apr-30 07:33N 35°24' E 139°43'1211.5
2016-Apr-30 06:33N 35°31' E 139°55'6 6.2
2016-Apr-30 05:33N 35°31' E 140°03'0 0.0
2016-Apr-30 04:33N 35°31' E 140°03'0 0.0
2016-Apr-30 03:33N 35°31' E 140°03'0 0.0
2016-Apr-30 02:33N 35°31' E 140°03'0 0.0
2016-Apr-30 01:27N 35°31' E 140°03'1 1.4
2016-Apr-30 00:33N 35°31' E 140°01'5 4.3
2016-Apr-29 23:24N 35°29' E 139°56'0 0.0
2016-Apr-29 22:33N 35°29' E 139°56'0 0.0
2016-Apr-29 21:33N 35°29' E 139°56'0 0.0
2016-Apr-29 20:33N 35°29' E 139°56'0 0.0
2016-Apr-29 19:33N 35°29' E 139°56'0 0.0
2016-Apr-29 17:30N 35°29' E 139°56'0 0.0
2016-Apr-29 16:32N 35°29' E 139°56'0 0.0
2016-Apr-29 15:32N 35°29' E 139°56'0 0.0
2016-Apr-29 14:33N 35°29' E 139°56'0 0.0
2016-Apr-29 13:30N 35°29' E 139°56'0 0.0
2016-Apr-29 12:18N 35°29' E 139°56'0 0.7
2016-Apr-29 11:33N 35°29' E 139°55'1010.3
2016-Apr-29 10:33N 35°22' E 139°45'1010.1
2016-Apr-29 09:33N 35°12' E 139°47'60 5.9
2016-Apr-28 23:17N 35°54' E 140°41'0 0.0
2016-Apr-27 23:31N 35°54' E 140°41'39 5.5
2016-Apr-27 16:26N 35°15' E 140°32'2513.0
2016-Apr-27 14:33N 34°60' E 140°09'1212.1
2016-Apr-27 13:33N 34°52' E 139°57'1110.4
2016-Apr-27 12:31N 34°55' E 139°45'1411.9
2016-Apr-27 11:21N 35°09' E 139°46'1111.9
2016-Apr-27 10:28N 35°20' E 139°43'1011.5
2016-Apr-27 09:33N 35°29' E 139°48'2 1.9
2016-Apr-27 08:29N 35°31' E 139°46'0 0.0
2016-Apr-27 07:17N 35°31' E 139°46'0 0.0
2016-Apr-27 05:24N 35°31' E 139°46'6 7.4
2016-Apr-27 04:33N 35°31' E 139°54'7 6.1
2016-Apr-27 03:26N 35°31' E 140°02'0 0.0
2016-Apr-27 02:32N 35°31' E 140°02'0 0.0
2016-Apr-27 01:29N 35°31' E 140°02'0 0.0
2016-Apr-27 00:23N 35°31' E 140°02'3 3.5
2016-Apr-26 23:33N 35°32' E 139°60'6 5.9
2016-Apr-26 22:28N 35°37' E 139°55'0 0.0
2016-Apr-26 21:31N 35°37' E 139°55'0 0.1
2016-Apr-26 20:31N 35°37' E 139°55'0 0.0
2016-Apr-26 19:28N 35°37' E 139°55'0 0.0
2016-Apr-26 18:31N 35°37' E 139°55'0 0.0
2016-Apr-26 17:31N 35°37' E 139°55'0 0.0
2016-Apr-26 16:31N 35°37' E 139°55'0 0.0
2016-Apr-26 15:28N 35°37' E 139°55'0 0.1
2016-Apr-26 14:31N 35°37' E 139°55'0 0.0
2016-Apr-26 13:32N 35°37' E 139°55'0 0.0
2016-Apr-26 12:31N 35°37' E 139°55'0 0.1
2016-Apr-26 11:33N 35°37' E 139°55'0 0.0
2016-Apr-26 10:33N 35°37' E 139°55'0 0.0
2016-Apr-26 09:34N 35°37' E 139°55'0 0.0
2016-Apr-26 08:33N 35°37' E 139°55'0 0.0
2016-Apr-26 07:33N 35°37' E 139°55'0 0.0
2016-Apr-26 06:34N 35°37' E 139°55'1010.4
2016-Apr-26 05:34N 35°28' E 139°48'7 7.4
2016-Apr-26 04:33N 35°23' E 139°42'9 2.0
2016-Apr-26 00:17N 35°31' E 139°46'3 3.7
2016-Apr-25 23:31N 35°29' E 139°49'0 0.0
2016-Apr-25 22:28N 35°29' E 139°49'0 0.0
2016-Apr-25 21:31N 35°29' E 139°49'0 0.0
2016-Apr-25 20:31N 35°29' E 139°49'0 0.0
2016-Apr-25 19:31N 35°29' E 139°49'0 0.0
2016-Apr-25 18:31N 35°29' E 139°49'0 0.0
2016-Apr-25 17:31N 35°29' E 139°49'0 0.0
2016-Apr-25 16:31N 35°29' E 139°49'5 5.0
2016-Apr-25 15:33N 35°24' E 139°46'10 9.9
2016-Apr-25 14:33N 35°14' E 139°47'63 6.3
2016-Apr-25 04:30N 35°58' E 140°43'4 0.7
2016-Apr-24 23:28N 35°55' E 140°41'5 3.5
2016-Apr-24 22:07N 35°59' E 140°42'5 9.1
2016-Apr-24 21:31N 35°55' E 140°46'1312.0
2016-Apr-24 20:26N 35°44' E 140°54'1111.3
2016-Apr-24 19:27N 35°34' E 140°50'2311.8
2016-Apr-24 17:28N 35°15' E 140°32'2412.3
2016-Apr-24 15:32N 34°60' E 140°10'1211.8
2016-Apr-24 14:29N 34°53' E 139°57'1010.2
2016-Apr-24 13:29N 34°55' E 139°45'1312.0
2016-Apr-24 12:22N 35°08' E 139°45'1012.5
2016-Apr-24 11:33N 35°18' E 139°44'1211.7
2016-Apr-24 10:34N 35°29' E 139°48'2 2.3
2016-Apr-24 09:32N 35°30' E 139°45'0 0.0
2016-Apr-24 08:32N 35°30' E 139°45'0 0.0
2016-Apr-24 07:32N 35°30' E 139°45'0 0.0
2016-Apr-24 06:32N 35°30' E 139°45'0 0.0
2016-Apr-24 05:32N 35°30' E 139°45'2 1.7
2016-Apr-24 04:34N 35°30' E 139°47'2 2.3
2016-Apr-24 03:33N 35°29' E 139°49'0 0.0
2016-Apr-24 02:33N 35°29' E 139°49'0 0.0
2016-Apr-24 01:33N 35°29' E 139°49'0 0.0
2016-Apr-24 00:33N 35°29' E 139°49'0 0.0
2016-Apr-23 23:33N 35°29' E 139°49'6 6.0
2016-Apr-23 22:33N 35°23' E 139°46'1010.3
2016-Apr-23 21:33N 35°13' E 139°47'1513.0
2016-Apr-23 20:22N 34°57' E 139°45'1110.8
2016-Apr-23 19:20N 34°53' E 139°57'912.1
2016-Apr-23 18:33N 34°58' E 140°06'2610.5
2016-Apr-23 16:07N 35°14' E 140°31'41 4.2
2016-Apr-23 06:28N 35°54' E 140°41'54 9.0
2016-Apr-23 00:28N 35°03' E 140°17'1112.4
2016-Apr-22 23:33N 34°57' E 140°05'  

Dump ship's entire track history